Dernières infos :  

21/04/2017  Mise à jour des tableaux d'analyses décadaires : rubrique climatologie
10/04/2017 Second record de chaleur en 24H pour une 1ère décade d'avril : 
CLIQUEZ ICI
02/04/2017  Mise à jour des tableaux d'analyses décadaires, mensuelles et annuelles : rubrique climatologie
02/04/2017 Mise en ligne de la synthèse climatologique de Mars 2017 : 
CLIQUEZ ICI   

Si l'entête du tableau ne s'affiche pas correctement, => actualisez la page (F5 avec Internet Explorer, Chrome...).
Utilisez l'ascenseur sur la droite des lignes du tableau pour faire défiler verticalement les jours du mois.

TABLEAU DES DONNEES COMPLETES NOAA D'OCTOBRE 2015

DATE TEMPERATURE
sous abri
TEMPARATURE 
au sol
VENT  et  Indice de Refroidissement Eolien  PRECIPITATIONS (en mm/m2)
et Intensité
PRESSION ATMOSPHERIQUE (en hPa) HUMIDITE de l'AIR RADIATIONS SOLAIRES (en W/m2)
Mini Moy. Maxi Mini Moy. Maxi Moyen Rafale I.R.E.
Minii
Précip. jour Cumul mois Intensité Maxi Mini Moy. Maxi Mini Moy. Maxi Pic maxi du jour Total jour
01/10/2015 5.2° 10.6° 17.4° 3.3° 10.6° 22.8° 2.7km/h dir N 17.7km/h dir N 5.3° 0.2 0.2 1020.1 1020.8 1021.7 60% 82.1% 95% 710 45 738
02/10/2015 7.4° 11.9° 17.8° 5.6° 12.3° 25° 2.6km/h dir N 14.5km/h dir NNO 7.1° 0 0.2 1016.6 1019.3 1021.8 62% 82.4% 94% 728 36 635
03/10/2015 11.6° 13.9° 19.7° 10° 13.6° 26.1° 5.1km/h dir SSE 35.4km/h dir SO 11.3° 9 9.2 17.4mm/h 1013.1 1015.8 1017.9 57% 83.4% 94% 673 22 149
04/10/2015 8.6° 14.2° 18.9° 5.6° 14.3° 23.9° 5.1km/h dir S 30.6km/h dir SSO 8.6° 0.4 9.6 25.8mm/h 1014.1 1017 1019.5 56% 78.9% 96% 666 45 561
05/10/2015 12.7° 17.2° 19.9° 9.4° 16.3° 20.6° 9.2km/h dir S 41.8km/h dir SSO 12.8° 1 10.6 4.2mm/h 1008.3 1011.8 1015.3 64% 75.9% 85% 475 21 434
06/10/2015 13.7° 16.7° 21° 12.2° 16.1° 23.9° 6.4km/h dir S 30.6km/h dir OSO 13° 18.8 29.4 81.2mm/h 1004.4 1007 1010.7 77% 88.3% 95% 789 15 365
07/10/2015 10.7° 13.9° 17.9° 8.9° 13.8° 25° 2.9km/h dir SE 17.7km/h dir ONO 10.8° 1.6 31 14.2mm/h 1010.6 1015.7 1018.8 61% 86.1% 95% 951 27 871
08/10/2015 7.3° 12.1° 17.4° 12.5° 26.1° 4.8km/h dir N 22.5km/h dir NNE 7.3° 0.2 31.2 1018.2 1019.1 1020.2 55% 81.9% 96% 837 41 353
09/10/2015 8.1° 10.7° 15.3° 6.7° 10.8° 18.9° 3.9km/h dir N 12.9km/h dir NNO 7.2° 0 31.2 1015.5 1017.6 1019.3 77% 88.5% 94% 649 28 695
10/10/2015 7.1° 9.6° 11.6° 5.6° 9.6° 11.7° 2.9km/h dir N 16.1km/h dir NO 7.1° 0.2 31.4 1010.5 1013 1015.7 92% 94.6% 96% 153 9 430
11/10/2015 6.3° 10.3° 12° 10.1° 14.4° 2.7km/h dir N 12.9km/h dir N 6.3° 0 31.4 1009 1009.6 1010.6 87% 92.5% 96% 276 15 314
12/10/2015 4.8° 8.7° 12.3° 3.9° 8.9° 14.4° 1.8km/h dir SSE 9.7km/h dir NNO 4.8° 0.2 31.6 1010.4 1012.4 1014.1 89% 94.3% 96% 301 14 898
13/10/2015 4.9° 9.8° 12.6° 2.8° 9.7° 15.6° 3.5km/h dir N 20.9km/h dir NNO 0 31.6 1013.3 1014.9 1017.5 80% 90.4% 96% 446 12 020
14/10/2015 4.2° 5.6° 7.3° 2.2° 5.8° 9.4° 7.4km/h dir N 24.1km/h dir NNO 2.3° 0.2 31.8 1015.2 1016 1017.4 74% 87.5% 95% 425 16 456
15/10/2015 2.3° 4.6° 5.9° 1.1° 8.3° 3.9km/h dir NNO 17.7km/h dir NNO 2.3° 4.2 36 1.2mm/h 1013.5 1015.2 1018.4 88% 91.9% 94% 425 11 212
16/10/2015 1.6° 6.2° 9.3° 0.6° 6.4° 12.2° 5km/h dir NNO 16.1km/h dir NNO 1.4° 0.4 36.4 1017.9 1018.6 1019.8 75% 88.2% 95% 722 17 934
17/10/2015 -0.8° 5.2° 13.1° -0.6° 5.7° 17.2° 2.3km/h dir ESE 12.9km/h dir OSO -1.5° 0 36.4 1016.6 1018.1 1019.7 60% 84.7% 96% 580 40 841
18/10/2015 3.5° 7.9° 14.6° 2.8° 8.1° 17.8° 2.7km/h dir NNO 14.5km/h dir N 3.3° 0.2 36.6 1015.3 1016.4 1017.6 70% 87.6% 95% 615 31 006
19/10/2015 3.3° 7.4° 13.9° 1.7° 7.2° 15.6° 5.8km/h dir N 25.7km/h dir NNE 0 36.6 1016.8 1017.7 1018.9 66% 87.1% 96% 645 24 212
20/10/2015 0.7° 6.4° 12.2° 6.2° 14.4° 5.3km/h dir N 22.5km/h dir NNE -0.7° 0 36.6 1017.7 1020 1021.5 67% 86.1% 95% 555 24 021
21/10/2015 8.6° 14.2° 2.8° 8.3° 16.7° 8.7km/h dir N 35.4km/h dir N 3.5° 0 36.6 1018.5 1019.9 1021.1 65% 84.6% 95% 584 38 433
22/10/2015 4.7° 8.9° 12.6° 2.8° 9.1° 15.6° 2.3km/h dir N 11.3km/h dir NNE 4.7° 0 36.6 1018.8 1020.4 1022.9 78% 90.2% 95% 592 17 854
23/10/2015 9.6° 12.1° 15.2° 6.7° 12.1° 17.2° 3.5km/h dir N 14.5km/h dir NNO 9.7° 0 36.6 1020.2 1022.2 1024.1 73% 88.7% 96% 404 17 838
24/10/2015 4.1° 12.1° 19.9° 2.8° 10.5° 19.4° 5.6km/h dir S 37km/h dir S 4.1° 0.2 36.8 1017.4 1018.8 1021.9 49% 76.3% 96% 448 27 798
25/10/2015 7.4° 12.6° 18.2° 5.6° 11.5° 20.6° 3.1km/h dir NNO 20.9km/h dir N 7.5° 0 36.8 1020 1022.4 1024.4 70% 85.3% 95% 633 28 250
26/10/2015 6.7° 12.9° 19.9° 5.6° 12.1° 20.6° 5.5km/h dir SSE 30.6km/h dir S 6.7° 0.2 37 1014.8 1017.1 1020.1 60% 83% 97% 545 35 077
27/10/2015 11.9° 14.9° 20.1° 10° 13.7° 23.3° 3.9km/h dir SSE 16.1km/h dir S 11.3° 3.6 40.6 3.6mm/h 1011.3 1013.6 1015.4 61% 78.1% 93% 729 18 918
28/10/2015 8.3° 11.3° 12.7° 6.1° 10.8° 12.8° 3.7km/h dir SE 22.5km/h dir NNO 8.4° 41.8 82.4 45.8mm/h 1009.1 1011.5 1015.2 91% 94.3% 96% 69 1 901
29/10/2015 4.8° 9.8° 15.1° 3.3° 9.7° 16.7° 4.5km/h dir N 20.9km/h dir N 4.8° 0.2 82.6 1015.2 1018.6 1021.7 78% 91.9% 97% 657 31 432
30/10/2015 7.6° 11.7° 18.2° 5.6° 11.2° 20° 2.1km/h dir SSE 14.5km/h dir ESE 7.7° 0 82.6 1021.1 1021.9 1023.3 67% 87.6% 95% 638 29 946
31/10/2015 3.3° 9.1° 16.1° 2.8° 8.8° 18.9° 1.9km/h dir N 9.7km/h dir NO 3.3° 0.2 82.8 1022 1024.1 1027.9 78% 91.3% 96% 510 34 485

RETOUR ACCUEIL


Date de création : 29/12/2015 : 19:20
Catégorie : ARCHIVES 2002 à 2016 - ANNEES 2010 à 2019 - ANNEE 2015 - OCTOBRE 2015
Page lue 680 fois


Réactions à cet article

Personne n'a encore laissé de commentaire.
Soyez donc le premier !